createdAt,value
2022-09-11T00:01:27.601Z,56.75
2022-09-11T00:04:14.574Z,56.99
2022-09-11T00:07:01.235Z,56.81
2022-09-11T00:09:48.011Z,57.01
2022-09-11T00:12:35.180Z,57.13
2022-09-11T00:15:22.331Z,56.93
2022-09-11T00:18:12.006Z,57.08
2022-09-11T00:20:59.373Z,57.01
2022-09-11T00:23:49.725Z,57.07
2022-09-11T00:26:37.592Z,57.12
2022-09-11T00:29:24.860Z,57.21
2022-09-11T00:32:11.530Z,57.13
2022-09-11T00:34:58.633Z,57.20
2022-09-11T00:37:46.092Z,57.42
2022-09-11T00:40:32.841Z,57.40
2022-09-11T00:43:19.904Z,57.37
2022-09-11T00:46:07.202Z,57.40
2022-09-11T00:48:57.783Z,57.30
2022-09-11T00:51:52.712Z,57.27
2022-09-11T00:54:52.990Z,57.39
2022-09-11T00:57:44.922Z,57.69
2022-09-11T01:00:31.869Z,57.61
2022-09-11T01:03:19.916Z,57.62
2022-09-11T01:06:07.513Z,57.77
2022-09-11T01:08:54.716Z,57.99
2022-09-11T01:11:53.977Z,58.12
2022-09-11T01:15:02.034Z,58.52
2022-09-11T01:17:55.304Z,58.21
2022-09-11T01:21:02.485Z,58.56
2022-09-11T01:23:56.697Z,58.32
2022-09-11T01:27:05.229Z,58.35
2022-09-11T01:30:19.191Z,58.47
2022-09-11T01:33:17.556Z,58.29
2022-09-11T01:36:20.263Z,58.02
2022-09-11T01:39:09.061Z,57.85
2022-09-11T01:42:01.935Z,58.19
2022-09-11T01:44:54.710Z,58.15
2022-09-11T01:47:46.495Z,58.25
2022-09-11T01:50:33.739Z,58.49
2022-09-11T01:53:24.574Z,58.56
2022-09-11T01:56:23.233Z,58.61
2022-09-11T01:59:15.351Z,58.51
2022-09-11T02:02:07.270Z,58.36
2022-09-11T02:05:05.114Z,58.34
2022-09-11T02:07:52.063Z,58.22
2022-09-11T02:10:50.259Z,58.32
2022-09-11T02:13:49.470Z,58.11
2022-09-11T02:17:06.883Z,58.63
2022-09-11T02:19:54.493Z,58.47
2022-09-11T02:22:42.457Z,58.55
2022-09-11T02:25:29.167Z,58.56
2022-09-11T02:28:17.719Z,58.49
2022-09-11T02:31:07.445Z,58.58
2022-09-11T02:33:55.139Z,58.56
2022-09-11T02:37:03.738Z,58.73
2022-09-11T02:40:20.116Z,58.83
2022-09-11T02:43:14.864Z,58.87
2022-09-11T02:46:20.280Z,59.14
2022-09-11T02:49:44.691Z,58.99
2022-09-11T02:52:54.071Z,59.00
2022-09-11T02:56:01.392Z,59.06
2022-09-11T02:58:57.657Z,58.99
2022-09-11T03:01:55.429Z,59.14
2022-09-11T03:04:46.248Z,59.14
2022-09-11T03:07:34.967Z,59.04
2022-09-11T03:10:22.246Z,59.15
2022-09-11T03:13:11.457Z,59.19
2022-09-11T03:16:03.050Z,58.98
2022-09-11T03:18:50.442Z,58.98
2022-09-11T03:21:39.658Z,58.96
2022-09-11T03:24:27.374Z,58.96
2022-09-11T03:27:14.899Z,59.00
2022-09-11T03:30:01.938Z,59.19
2022-09-11T03:32:50.741Z,59.18
2022-09-11T03:35:39.342Z,59.27
2022-09-11T03:38:26.693Z,59.07
2022-09-11T03:41:15.197Z,59.15
2022-09-11T03:44:04.797Z,59.03
2022-09-11T03:46:53.530Z,59.11
2022-09-11T03:49:41.399Z,59.26
2022-09-11T03:52:32.971Z,59.32
2022-09-11T03:55:20.054Z,59.25
2022-09-11T03:58:08.148Z,59.38
2022-09-11T04:00:57.550Z,59.67
2022-09-11T04:03:44.540Z,59.56
2022-09-11T04:06:42.633Z,59.73
2022-09-11T04:09:31.897Z,59.64
2022-09-11T04:12:19.973Z,59.60
2022-09-11T04:15:08.504Z,60.03
2022-09-11T04:17:55.764Z,60.08
2022-09-11T04:20:43.425Z,60.17
2022-09-11T04:23:30.964Z,60.01
2022-09-11T04:26:19.438Z,60.13
2022-09-11T04:29:13.024Z,60.18
2022-09-11T04:32:00.169Z,60.28
2022-09-11T04:34:50.743Z,60.35
2022-09-11T04:37:37.979Z,60.22
2022-09-11T04:40:25.386Z,60.57
2022-09-11T04:43:13.244Z,60.46
2022-09-11T04:46:05.523Z,60.74
2022-09-11T04:48:56.209Z,60.68
2022-09-11T04:51:45.718Z,60.72
2022-09-11T04:54:35.179Z,60.88
2022-09-11T04:57:30.723Z,60.88
2022-09-11T05:00:18.265Z,60.77
2022-09-11T05:03:05.706Z,60.71
2022-09-11T05:05:54.094Z,60.68
2022-09-11T05:08:41.091Z,60.71
2022-09-11T05:11:27.914Z,60.90
2022-09-11T05:14:15.752Z,60.67
2022-09-11T05:17:05.015Z,60.74
2022-09-11T05:19:56.493Z,60.63
2022-09-11T05:22:43.742Z,60.58
2022-09-11T05:25:34.104Z,60.30
2022-09-11T05:28:22.745Z,60.21
2022-09-11T05:31:18.229Z,60.17
2022-09-11T05:34:06.101Z,60.00
2022-09-11T05:36:53.444Z,60.08
2022-09-11T05:39:40.424Z,60.06
2022-09-11T05:42:29.404Z,60.13
2022-09-11T05:45:16.695Z,59.92
2022-09-11T05:48:04.952Z,59.98
2022-09-11T05:51:01.400Z,59.86
2022-09-11T05:53:51.229Z,59.80
2022-09-11T05:56:38.548Z,59.53
2022-09-11T05:59:31.760Z,59.69
2022-09-11T06:02:19.632Z,59.64
2022-09-11T06:05:12.007Z,59.83
2022-09-11T06:07:59.112Z,59.72
2022-09-11T06:10:49.508Z,59.95
2022-09-11T06:13:40.185Z,59.88
2022-09-11T06:16:28.041Z,59.85
2022-09-11T06:19:19.282Z,59.83
2022-09-11T06:22:06.327Z,59.72
2022-09-11T06:24:58.318Z,59.68
2022-09-11T06:27:47.379Z,59.65
2022-09-11T06:30:34.960Z,59.29
2022-09-11T06:33:22.681Z,59.33
2022-09-11T06:36:16.556Z,59.17
2022-09-11T06:39:05.337Z,59.01
2022-09-11T06:41:55.847Z,58.82
2022-09-11T06:44:50.953Z,58.94
2022-09-11T06:47:38.640Z,58.64
2022-09-11T06:50:27.088Z,58.68
2022-09-11T06:53:25.645Z,58.71
2022-09-11T06:56:17.722Z,58.65
2022-09-11T06:59:06.318Z,58.47
2022-09-11T07:01:55.637Z,58.60
2022-09-11T07:04:43.706Z,58.50
2022-09-11T07:07:31.443Z,58.45
2022-09-11T07:10:18.703Z,58.35
2022-09-11T07:13:11.640Z,58.24
2022-09-11T07:16:04.011Z,58.40
2022-09-11T07:18:58.373Z,58.10
2022-09-11T07:21:46.869Z,57.98
2022-09-11T07:24:33.474Z,58.18
2022-09-11T07:27:19.715Z,58.05
2022-09-11T07:30:11.870Z,58.05
2022-09-11T07:33:01.577Z,57.89
2022-09-11T07:35:48.302Z,58.03
2022-09-11T07:38:35.679Z,58.13
2022-09-11T07:41:23.898Z,58.04
2022-09-11T07:44:15.147Z,58.15
2022-09-11T07:47:01.264Z,58.04
2022-09-11T07:49:51.051Z,58.07
2022-09-11T07:52:37.771Z,57.91
2022-09-11T07:55:25.275Z,57.82
2022-09-11T07:58:13.607Z,57.94
2022-09-11T08:01:00.215Z,57.71
2022-09-11T08:03:46.919Z,57.81
2022-09-11T08:06:36.739Z,57.64
2022-09-11T08:09:27.278Z,57.25
2022-09-11T08:12:15.143Z,57.61
2022-09-11T08:15:00.992Z,57.33
2022-09-11T08:17:48.668Z,57.21
2022-09-11T08:20:34.614Z,56.95
2022-09-11T08:23:22.165Z,56.76
2022-09-11T08:26:09.928Z,56.66
2022-09-11T08:29:00.059Z,56.48
2022-09-11T08:31:50.667Z,56.35
2022-09-11T08:34:38.554Z,56.49
2022-09-11T08:37:25.914Z,56.41
2022-09-11T08:40:13.109Z,56.28
2022-09-11T08:43:02.537Z,56.11
2022-09-11T08:45:50.102Z,56.05
2022-09-11T08:48:50.528Z,55.76
2022-09-11T08:51:37.050Z,55.80
2022-09-11T08:54:27.905Z,55.69
2022-09-11T08:57:37.789Z,55.58
2022-09-11T09:00:41.337Z,55.71
2022-09-11T09:04:10.094Z,55.43
2022-09-11T09:07:24.526Z,55.45
2022-09-11T09:10:24.184Z,55.48
2022-09-11T09:13:31.155Z,55.32
2022-09-11T09:16:36.573Z,54.97
2022-09-11T09:19:41.646Z,55.01
2022-09-11T09:22:45.148Z,54.99
2022-09-11T09:25:38.453Z,54.72
2022-09-11T09:28:33.682Z,54.85
2022-09-11T09:31:22.070Z,54.85
2022-09-11T09:34:16.377Z,54.70
2022-09-11T09:37:23.232Z,54.59
2022-09-11T09:40:10.998Z,54.69
2022-09-11T09:43:19.489Z,54.59
2022-09-11T09:46:14.728Z,54.43
2022-09-11T09:49:01.395Z,54.13
2022-09-11T09:51:48.540Z,54.00
2022-09-11T09:54:36.570Z,53.94
2022-09-11T09:57:25.288Z,54.00
2022-09-11T10:00:11.987Z,54.00
2022-09-11T10:03:18.446Z,53.80
2022-09-11T10:06:05.402Z,53.81
2022-09-11T10:09:00.119Z,53.64
2022-09-11T10:12:02.868Z,53.53
2022-09-11T10:14:59.916Z,53.18
2022-09-11T10:17:48.172Z,53.09
2022-09-11T10:20:34.919Z,53.09
2022-09-11T10:23:26.203Z,52.78
2022-09-11T10:26:21.663Z,52.41
2022-09-11T10:29:16.245Z,52.05
2022-09-11T10:32:03.007Z,51.64
2022-09-11T10:34:49.100Z,51.19
2022-09-11T10:37:35.268Z,50.61
2022-09-11T10:40:23.242Z,50.25
2022-09-11T10:43:28.513Z,48.17
2022-09-11T10:46:40.377Z,49.02
2022-09-11T10:49:26.673Z,49.33
2022-09-11T10:52:12.314Z,48.92
2022-09-11T10:55:05.704Z,48.57
2022-09-11T10:57:58.011Z,48.20
2022-09-11T11:00:45.012Z,48.42
2022-09-11T11:03:31.114Z,48.00
2022-09-11T11:06:46.492Z,47.64
2022-09-11T11:09:49.405Z,48.05
2022-09-11T11:12:49.988Z,47.76
2022-09-11T11:15:44.910Z,47.79
2022-09-11T11:19:07.057Z,46.86
2022-09-11T11:22:22.676Z,48.11
2022-09-11T11:25:14.717Z,48.51
2022-09-11T11:28:32.143Z,47.97
2022-09-11T11:31:28.344Z,47.85
2022-09-11T11:34:20.503Z,47.44
2022-09-11T11:37:34.784Z,46.86
2022-09-11T11:40:46.288Z,45.73
2022-09-11T11:43:34.289Z,45.73
2022-09-11T11:46:35.240Z,45.05
2022-09-11T11:49:31.595Z,44.31
2022-09-11T11:52:31.947Z,43.65
2022-09-11T11:55:21.469Z,43.13
2022-09-11T11:58:14.747Z,42.14
2022-09-11T12:01:02.397Z,41.23
2022-09-11T12:03:59.798Z,40.01
2022-09-11T12:06:46.668Z,39.19
2022-09-11T12:09:33.863Z,38.46
2022-09-11T12:12:21.903Z,38.82
2022-09-11T12:15:30.288Z,38.16
2022-09-11T12:18:16.115Z,38.70
2022-09-11T12:21:31.705Z,38.49
2022-09-11T12:24:20.457Z,39.12
2022-09-11T12:27:34.672Z,37.48
2022-09-11T12:30:26.691Z,37.19
2022-09-11T12:33:41.075Z,35.53
2022-09-11T12:36:33.861Z,35.59
2022-09-11T12:39:27.741Z,35.34
2022-09-11T12:42:25.925Z,34.04
2022-09-11T12:45:37.224Z,31.84
2022-09-11T12:48:32.448Z,32.32
2022-09-11T12:51:32.955Z,32.56
2022-09-11T12:54:40.225Z,31.92
2022-09-11T12:57:35.451Z,33.71
2022-09-11T13:00:34.888Z,34.31
2022-09-11T13:03:24.309Z,34.92
2022-09-11T13:06:12.025Z,35.45
2022-09-11T13:08:59.996Z,36.21
2022-09-11T13:11:49.657Z,36.61
2022-09-11T13:14:48.061Z,37.29
2022-09-11T13:17:34.764Z,38.09
2022-09-11T13:20:23.347Z,38.27
2022-09-11T13:23:18.637Z,38.61
2022-09-11T13:26:06.411Z,39.28
2022-09-11T13:28:55.353Z,39.47
2022-09-11T13:31:43.234Z,40.05
2022-09-11T13:34:29.949Z,40.74
2022-09-11T13:37:35.964Z,41.03
2022-09-11T13:40:29.851Z,41.86
2022-09-11T13:43:20.898Z,42.31
2022-09-11T13:46:11.774Z,43.13
2022-09-11T13:49:17.814Z,43.67
2022-09-11T13:52:06.324Z,44.02
2022-09-11T13:54:54.374Z,44.28
2022-09-11T13:58:02.679Z,45.26
2022-09-11T14:00:50.550Z,43.76
2022-09-11T14:03:37.358Z,43.40
2022-09-11T14:06:24.731Z,43.40
2022-09-11T14:09:15.972Z,43.50
2022-09-11T14:12:05.082Z,43.71
2022-09-11T14:14:57.622Z,44.17
2022-09-11T14:17:43.396Z,44.35
2022-09-11T14:20:30.257Z,44.49
2022-09-11T14:23:27.443Z,44.76
2022-09-11T14:26:17.051Z,44.86
2022-09-11T14:29:31.528Z,45.13
2022-09-11T14:32:33.822Z,45.54
2022-09-11T14:35:21.004Z,45.68
2022-09-11T14:38:10.058Z,46.13
2022-09-11T14:41:02.003Z,46.57
2022-09-11T14:43:49.618Z,46.74
2022-09-11T14:46:35.456Z,47.20
2022-09-11T14:49:22.191Z,47.54
2022-09-11T14:52:17.571Z,48.29
2022-09-11T14:55:03.894Z,48.21
2022-09-11T14:57:49.727Z,48.53
2022-09-11T15:00:35.533Z,48.88
2022-09-11T15:03:22.507Z,48.87
2022-09-11T15:06:20.482Z,49.33
2022-09-11T15:09:06.656Z,49.65
2022-09-11T15:11:53.122Z,50.09
2022-09-11T15:14:55.754Z,50.28
2022-09-11T15:17:43.666Z,50.25
2022-09-11T15:20:29.913Z,50.20
2022-09-11T15:23:16.638Z,50.55
2022-09-11T15:26:02.857Z,50.75
2022-09-11T15:28:50.934Z,50.99
2022-09-11T15:31:39.912Z,51.63
2022-09-11T15:34:26.579Z,51.20
2022-09-11T15:37:12.346Z,51.39
2022-09-11T15:39:58.008Z,51.54
2022-09-11T15:42:43.916Z,51.70
2022-09-11T15:45:29.769Z,51.83
2022-09-11T15:48:16.183Z,51.99
2022-09-11T15:51:02.214Z,52.21
2022-09-11T15:53:48.464Z,52.03
2022-09-11T15:56:36.060Z,52.42
2022-09-11T15:59:22.463Z,52.63
2022-09-11T16:02:09.472Z,52.98
2022-09-11T16:04:55.640Z,53.15
2022-09-11T16:07:41.814Z,53.42
2022-09-11T16:10:27.924Z,53.68
2022-09-11T16:13:13.789Z,53.75
2022-09-11T16:16:04.195Z,54.06
2022-09-11T16:18:50.183Z,54.01
2022-09-11T16:21:36.129Z,53.99
2022-09-11T16:24:23.019Z,54.04
2022-09-11T16:27:10.715Z,54.44
2022-09-11T16:30:32.167Z,54.43
2022-09-11T16:33:02.539Z,54.42
2022-09-11T16:36:03.056Z,55.07
2022-09-11T16:38:51.681Z,54.76
2022-09-11T16:41:37.882Z,54.85
2022-09-11T16:44:24.152Z,54.81
2022-09-11T16:47:10.288Z,54.75
2022-09-11T16:50:12.134Z,54.89
2022-09-11T16:53:01.863Z,54.91
2022-09-11T16:55:49.321Z,54.96
2022-09-11T16:58:35.099Z,55.49
2022-09-11T17:01:23.606Z,55.39
2022-09-11T17:04:09.577Z,55.32
2022-09-11T17:06:56.515Z,55.45
2022-09-11T17:09:43.674Z,55.45
2022-09-11T17:12:29.570Z,55.65
2022-09-11T17:15:15.351Z,55.51
2022-09-11T17:18:01.157Z,55.37
2022-09-11T17:20:47.381Z,55.54
2022-09-11T17:23:34.559Z,55.64
2022-09-11T17:26:21.246Z,55.74
2022-09-11T17:29:07.660Z,55.63
2022-09-11T17:32:10.534Z,55.73
2022-09-11T17:34:59.426Z,55.81
2022-09-11T17:37:46.198Z,55.94
2022-09-11T17:40:32.351Z,55.93
2022-09-11T17:43:18.460Z,56.10
2022-09-11T17:46:10.367Z,56.21
2022-09-11T17:48:56.545Z,56.18
2022-09-11T17:51:42.487Z,56.29
2022-09-11T17:54:28.551Z,56.36
2022-09-11T17:57:16.077Z,56.36
2022-09-11T18:00:03.849Z,56.45
2022-09-11T18:02:58.973Z,56.44
2022-09-11T18:05:45.680Z,56.62
2022-09-11T18:08:33.355Z,56.66
2022-09-11T18:11:19.717Z,56.58
2022-09-11T18:14:06.248Z,56.47
2022-09-11T18:16:52.261Z,56.65
2022-09-11T18:19:38.934Z,56.84
2022-09-11T18:22:25.498Z,56.99
2022-09-11T18:25:11.687Z,57.10
2022-09-11T18:27:59.714Z,56.95
2022-09-11T18:30:47.540Z,56.95
2022-09-11T18:33:34.037Z,57.14
2022-09-11T18:36:21.785Z,57.14
2022-09-11T18:39:24.982Z,57.56
2022-09-11T18:42:13.945Z,57.15
2022-09-11T18:45:00.062Z,57.16
2022-09-11T18:47:52.679Z,57.07
2022-09-11T18:50:38.646Z,57.15
2022-09-11T18:53:26.009Z,57.18
2022-09-11T18:56:15.377Z,57.09
2022-09-11T18:59:01.535Z,57.21
2022-09-11T19:01:48.296Z,57.29
2022-09-11T19:04:35.058Z,57.31
2022-09-11T19:07:21.436Z,57.42
2022-09-11T19:10:07.509Z,57.39
2022-09-11T19:12:54.222Z,57.50
2022-09-11T19:15:41.145Z,57.61
2022-09-11T19:18:27.178Z,57.63
2022-09-11T19:21:15.939Z,57.79
2022-09-11T19:24:02.683Z,57.65
2022-09-11T19:26:49.107Z,57.76
2022-09-11T19:29:34.834Z,57.79
2022-09-11T19:32:23.615Z,57.77
2022-09-11T19:35:09.326Z,57.88
2022-09-11T19:37:56.063Z,57.98
2022-09-11T19:40:41.979Z,57.83
2022-09-11T19:43:32.754Z,57.85
2022-09-11T19:46:26.487Z,57.81
2022-09-11T19:49:12.627Z,58.58
2022-09-11T19:52:00.425Z,58.04
2022-09-11T19:54:46.790Z,58.05
2022-09-11T19:57:32.861Z,58.10
2022-09-11T20:00:18.750Z,58.14
2022-09-11T20:03:05.265Z,58.33
2022-09-11T20:05:53.790Z,58.35
2022-09-11T20:08:43.442Z,58.36
2022-09-11T20:11:29.269Z,58.24
2022-09-11T20:14:15.220Z,58.28
2022-09-11T20:17:01.375Z,58.48
2022-09-11T20:19:47.463Z,58.36
2022-09-11T20:22:33.283Z,58.25
2022-09-11T20:25:19.253Z,58.24
2022-09-11T20:28:05.626Z,58.18
2022-09-11T20:30:51.668Z,58.11
2022-09-11T20:33:37.424Z,58.14
2022-09-11T20:36:23.785Z,58.20
2022-09-11T20:39:12.406Z,58.34
2022-09-11T20:42:00.491Z,58.71
2022-09-11T20:44:49.045Z,58.84
2022-09-11T20:47:34.835Z,58.81
2022-09-11T20:50:20.856Z,58.82
2022-09-11T20:53:06.867Z,58.83
2022-09-11T20:55:52.581Z,58.82
2022-09-11T20:58:39.350Z,58.90
2022-09-11T21:01:26.797Z,58.74
2022-09-11T21:04:12.611Z,58.92
2022-09-11T21:07:00.499Z,59.04
2022-09-11T21:09:46.789Z,59.04
2022-09-11T21:12:32.761Z,59.04
2022-09-11T21:15:18.675Z,58.82
2022-09-11T21:18:04.631Z,59.05
2022-09-11T21:20:55.542Z,59.23
2022-09-11T21:23:41.704Z,59.44
2022-09-11T21:26:29.003Z,59.38
2022-09-11T21:29:14.986Z,59.44
2022-09-11T21:32:00.584Z,59.50
2022-09-11T21:34:46.404Z,59.78
2022-09-11T21:37:32.415Z,59.81
2022-09-11T21:40:18.419Z,59.75
2022-09-11T21:43:04.487Z,59.65
2022-09-11T21:45:50.401Z,59.56
2022-09-11T21:48:39.375Z,59.73
2022-09-11T21:51:26.441Z,59.76
2022-09-11T21:54:12.287Z,60.01
2022-09-11T21:56:58.262Z,60.03
2022-09-11T21:59:44.411Z,60.08
2022-09-11T22:02:30.346Z,60.11
2022-09-11T22:05:16.461Z,60.14
2022-09-11T22:08:03.190Z,60.14
2022-09-11T22:10:51.066Z,60.08
2022-09-11T22:13:37.668Z,60.17
2022-09-11T22:16:23.620Z,60.24
2022-09-11T22:19:09.485Z,60.52
2022-09-11T22:21:55.575Z,60.33
2022-09-11T22:24:41.509Z,60.36
2022-09-11T22:27:27.405Z,60.46
2022-09-11T22:30:13.997Z,60.35
2022-09-11T22:33:00.432Z,60.25
2022-09-11T22:35:49.367Z,60.35
2022-09-11T22:38:35.749Z,60.20
2022-09-11T22:41:22.291Z,60.26
2022-09-11T22:44:09.785Z,60.31
2022-09-11T22:46:55.676Z,60.48
2022-09-11T22:49:48.878Z,60.52
2022-09-11T22:52:34.754Z,60.31
2022-09-11T22:55:20.464Z,60.68
2022-09-11T22:58:06.196Z,60.44
2022-09-11T23:00:54.053Z,60.45
2022-09-11T23:03:40.098Z,60.38
2022-09-11T23:06:51.148Z,60.70
2022-09-11T23:09:38.054Z,60.50
2022-09-11T23:12:24.005Z,60.79
2022-09-11T23:15:10.143Z,60.75
2022-09-11T23:17:55.949Z,60.70
2022-09-11T23:20:41.957Z,60.75
2022-09-11T23:23:28.028Z,60.77
2022-09-11T23:26:14.685Z,60.71
2022-09-11T23:29:00.604Z,60.63
2022-09-11T23:31:46.932Z,60.92
2022-09-11T23:34:32.926Z,60.86
2022-09-11T23:37:18.867Z,60.88
2022-09-11T23:40:05.767Z,61.01
2022-09-11T23:43:02.114Z,61.14
2022-09-11T23:45:48.442Z,60.69
2022-09-11T23:48:38.908Z,60.68
2022-09-11T23:51:24.676Z,60.71
2022-09-11T23:54:10.375Z,60.53
2022-09-11T23:57:19.350Z,60.92
